Time;durP1;ratioP1;P1;durP2;ratioP2;P2;SDS_P1;SDS_P2;PMS_P1;PMS_P2;Temp;Humidity;BMP_temperature;BMP_pressure;BME280_temperature;BME280_humidity;BME280_pressure;Samples;Min_cycle;Max_cycle;Signal;HPM_P1;HPM_P2
2021/06/28 00:01:07;;;;;;;6.00;4.30;;;15.30;66.40;;;;;;5079796;28;20012;-72
2021/06/28 00:03:34;;;;;;;6.68;3.90;;;15.20;66.20;;;;;;5079811;28;20013;-72
2021/06/28 00:06:00;;;;;;;7.38;4.05;;;15.20;66.10;;;;;;5079903;28;20033;-72
2021/06/28 00:08:27;;;;;;;8.90;3.90;;;15.20;66.10;;;;;;5079399;28;20037;-71
2021/06/28 00:10:52;;;;;;;5.82;3.97;;;15.20;66.00;;;;;;5079543;28;20025;-71
2021/06/28 00:13:19;;;;;;;7.68;3.65;;;15.10;66.00;;;;;;5079710;28;20035;-72
2021/06/28 00:15:45;;;;;;;7.10;3.90;;;15.10;66.10;;;;;;5079366;28;20056;-72
2021/06/28 00:18:12;;;;;;;6.20;3.80;;;15.10;66.10;;;;;;5077732;28;20064;-72
2021/06/28 00:20:38;;;;;;;8.93;4.20;;;15.10;66.10;;;;;;5073338;28;20052;-72
2021/06/28 00:23:04;;;;;;;7.38;4.20;;;15.00;66.10;;;;;;5078891;28;20028;-72
2021/06/28 00:25:30;;;;;;;6.32;3.45;;;15.00;66.10;;;;;;5078771;28;20070;-72
2021/06/28 00:27:57;;;;;;;6.40;3.85;;;15.00;66.00;;;;;;5079217;28;20398;-71
2021/06/28 00:30:23;;;;;;;6.53;3.85;;;14.90;66.10;;;;;;5073980;28;20032;-72
2021/06/28 00:32:51;;;;;;;7.47;4.10;;;14.90;66.10;;;;;;5073978;28;20055;-71
2021/06/28 00:35:21;;;;;;;6.78;4.20;;;14.90;66.30;;;;;;5078806;28;20067;-71
2021/06/28 00:37:47;;;;;;;5.70;3.45;;;14.90;66.30;;;;;;5075448;28;20383;-72
2021/06/28 00:40:15;;;;;;;8.57;3.65;;;14.90;66.20;;;;;;5078628;28;20021;-72
2021/06/28 00:42:41;;;;;;;7.03;4.25;;;14.80;66.30;;;;;;5078588;28;20150;-72
2021/06/28 00:45:21;;;;;;;7.78;4.15;;;14.80;66.30;;;;;;5078444;28;20033;-72
2021/06/28 00:47:47;;;;;;;6.30;4.28;;;14.80;66.40;;;;;;5079067;28;20100;-71
2021/06/28 00:50:15;;;;;;;6.93;4.22;;;14.80;66.40;;;;;;5078283;28;20032;-72
2021/06/28 00:52:41;;;;;;;5.85;3.50;;;14.80;66.70;;;;;;5078728;28;20012;-72
2021/06/28 00:55:09;;;;;;;6.65;4.15;;;14.70;66.70;;;;;;5078131;28;20039;-72
2021/06/28 00:57:35;;;;;;;8.13;4.55;;;14.70;67.00;;;;;;5078172;28;20503;-71
2021/06/28 01:00:01;;;;;;;7.55;4.72;;;14.70;67.00;;;;;;5078708;28;20025;-72
2021/06/28 01:02:27;;;;;;;7.50;4.97;;;14.70;67.10;;;;;;5078211;28;20025;-71
2021/06/28 01:04:53;;;;;;;7.55;3.90;;;14.70;67.50;;;;;;5078690;28;20123;-72
2021/06/28 01:07:19;;;;;;;8.20;5.20;;;14.70;67.50;;;;;;5078376;28;20051;-72
2021/06/28 01:09:44;;;;;;;11.15;4.72;;;14.60;68.00;;;;;;5076452;28;20054;-72
2021/06/28 01:12:10;;;;;;;8.85;4.65;;;14.60;68.20;;;;;;5077891;28;20020;-72
2021/06/28 01:14:37;;;;;;;8.20;4.20;;;14.60;68.10;;;;;;5077403;28;20024;-71
2021/06/28 01:17:03;;;;;;;18.08;5.82;;;14.60;68.40;;;;;;5072154;28;20065;-71
2021/06/28 01:19:33;;;;;;;10.90;5.22;;;14.50;69.00;;;;;;5070178;28;20021;-71
2021/06/28 01:22:01;;;;;;;7.90;4.25;;;14.60;68.80;;;;;;5070575;28;20024;-72
2021/06/28 01:24:26;;;;;;;7.30;4.47;;;14.60;68.30;;;;;;5076727;28;20028;-72
2021/06/28 01:26:53;;;;;;;8.85;4.40;;;14.60;68.10;;;;;;5076433;28;20024;-71
2021/06/28 01:29:19;;;;;;;9.23;5.10;;;14.50;67.60;;;;;;5077641;28;20035;-72
2021/06/28 01:31:45;;;;;;;11.43;5.10;;;14.50;68.10;;;;;;5076941;28;20021;-72
2021/06/28 01:34:11;;;;;;;10.52;5.70;;;14.50;68.80;;;;;;5077553;28;20562;-72
2021/06/28 01:36:36;;;;;;;9.95;4.60;;;14.50;68.40;;;;;;5078071;28;20024;-72
2021/06/28 01:39:04;;;;;;;10.60;5.57;;;14.50;69.60;;;;;;5077077;28;20052;-72
2021/06/28 01:41:29;;;;;;;8.88;4.95;;;14.50;69.00;;;;;;5077076;28;20024;-71
2021/06/28 01:43:55;;;;;;;8.43;4.65;;;14.40;68.90;;;;;;5076085;28;20095;-71
2021/06/28 01:46:21;;;;;;;8.25;4.10;;;14.50;68.70;;;;;;5077490;28;20016;-71
2021/06/28 01:48:47;;;;;;;12.45;5.38;;;14.50;68.40;;;;;;5076662;28;20487;-72
2021/06/28 01:51:13;;;;;;;10.32;5.10;;;14.40;70.30;;;;;;5061078;28;20028;-72
2021/06/28 01:53:40;;;;;;;8.85;5.32;;;14.40;69.60;;;;;;5074094;28;20029;-72
2021/06/28 01:56:06;;;;;;;11.55;5.40;;;14.40;70.00;;;;;;5076990;28;20074;-72
2021/06/28 01:58:33;;;;;;;9.25;5.38;;;14.40;69.80;;;;;;5074857;28;20025;-72
2021/06/28 02:00:59;;;;;;;7.38;4.60;;;14.40;69.60;;;;;;5076714;28;20074;-72
2021/06/28 02:03:26;;;;;;;8.40;4.90;;;14.40;69.30;;;;;;5076945;28;20073;-71
2021/06/28 02:05:57;;;;;;;8.95;4.93;;;14.40;69.50;;;;;;5077318;28;20543;-72
2021/06/28 02:08:26;;;;;;;10.85;5.45;;;14.40;69.40;;;;;;5076617;28;20402;-72
2021/06/28 02:10:55;;;;;;;7.18;4.57;;;14.40;69.90;;;;;;5076023;28;20033;-72
2021/06/28 02:13:24;;;;;;;10.38;5.28;;;14.40;71.00;;;;;;5063677;28;20086;-72
2021/06/28 02:15:51;;;;;;;9.60;5.00;;;14.40;70.30;;;;;;5077059;28;20048;-72
2021/06/28 02:18:17;;;;;;;11.20;5.65;;;14.40;70.20;;;;;;5075186;28;20035;-72
2021/06/28 02:20:43;;;;;;;9.45;5.28;;;14.40;70.00;;;;;;5063804;28;20016;-71
2021/06/28 02:23:20;;;;;;;9.93;5.55;;;14.40;70.30;;;;;;5076753;28;20027;-71
2021/06/28 02:25:48;;;;;;;10.45;5.50;;;14.40;71.10;;;;;;5076878;28;20020;-71
2021/06/28 02:28:14;;;;;;;8.50;5.07;;;14.40;70.70;;;;;;5076942;28;20028;-72
2021/06/28 02:30:40;;;;;;;9.13;5.30;;;14.40;70.30;;;;;;5060574;28;20550;-72
2021/06/28 02:33:05;;;;;;;12.95;5.68;;;14.40;71.20;;;;;;5075485;28;20533;-72
2021/06/28 02:35:31;;;;;;;12.02;5.55;;;14.30;71.10;;;;;;5076830;28;20425;-72
2021/06/28 02:37:57;;;;;;;10.70;4.90;;;14.40;71.50;;;;;;5074269;28;20036;-72
2021/06/28 02:40:23;;;;;;;11.30;5.30;;;14.30;71.30;;;;;;5076437;28;20062;-72
2021/06/28 02:42:49;;;;;;;10.93;5.03;;;14.30;70.90;;;;;;5076768;28;20499;-72
2021/06/28 02:45:15;;;;;;;12.30;4.97;;;14.40;70.70;;;;;;5076424;28;20029;-72
2021/06/28 02:47:41;;;;;;;10.02;4.82;;;14.40;70.50;;;;;;5076562;28;20103;-72
2021/06/28 02:50:12;;;;;;;9.65;4.90;;;14.40;70.40;;;;;;5076130;28;20051;-72
2021/06/28 02:52:39;;;;;;;7.35;4.72;;;14.40;71.80;;;;;;5076236;28;20028;-72
2021/06/28 02:55:06;;;;;;;8.25;5.53;;;14.40;71.40;;;;;;5076412;28;20056;-72
2021/06/28 02:57:32;;;;;;;13.43;5.90;;;14.40;71.50;;;;;;5076030;28;20107;-72
2021/06/28 02:59:58;;;;;;;17.17;5.32;;;14.40;72.10;;;;;;5076123;28;20025;-72
2021/06/28 03:02:24;;;;;;;11.73;5.45;;;14.40;72.10;;;;;;5075677;28;20024;-72
2021/06/28 03:04:50;;;;;;;8.70;5.05;;;14.40;71.80;;;;;;5076494;28;20487;-72
2021/06/28 03:07:17;;;;;;;8.23;5.22;;;14.40;71.90;;;;;;5076625;28;20036;-72
2021/06/28 03:09:43;;;;;;;10.02;5.05;;;14.40;72.50;;;;;;5071427;28;20025;-72
2021/06/28 03:12:09;;;;;;;6.97;5.05;;;14.40;71.80;;;;;;5073491;28;20483;-72
2021/06/28 03:14:35;;;;;;;8.13;4.53;;;14.40;71.60;;;;;;5075756;28;20499;-72
2021/06/28 03:17:01;;;;;;;10.73;5.05;;;14.40;71.20;;;;;;5070246;28;20239;-72
2021/06/28 03:19:26;;;;;;;11.82;4.70;;;14.40;72.00;;;;;;5069434;28;20770;-72
2021/06/28 03:21:52;;;;;;;9.30;4.78;;;14.40;73.10;;;;;;5070797;28;20559;-72
2021/06/28 03:24:18;;;;;;;10.30;4.28;;;14.40;72.40;;;;;;5079168;28;20383;-72
2021/06/28 03:26:44;;;;;;;9.98;4.43;;;14.40;72.70;;;;;;5079604;28;20449;-72
2021/06/28 03:29:09;;;;;;;7.30;4.13;;;14.50;72.50;;;;;;5078510;28;20028;-72
2021/06/28 03:31:35;;;;;;;10.05;4.57;;;14.50;72.20;;;;;;5079248;28;20037;-72
2021/06/28 03:34:01;;;;;;;8.30;3.80;;;14.50;71.80;;;;;;5079942;28;20025;-72
2021/06/28 03:36:27;;;;;;;9.52;4.60;;;14.50;71.70;;;;;;5079652;28;20031;-72
2021/06/28 03:38:53;;;;;;;12.95;5.22;;;14.50;71.70;;;;;;5079394;28;20035;-72
2021/06/28 03:41:19;;;;;;;9.70;4.68;;;14.60;72.80;;;;;;5079539;28;20048;-72
2021/06/28 03:43:45;;;;;;;12.45;5.05;;;14.50;72.70;;;;;;5078635;28;20030;-72
2021/06/28 03:46:11;;;;;;;11.00;4.65;;;14.60;73.00;;;;;;5079669;28;20028;-71
2021/06/28 03:48:37;;;;;;;12.93;4.80;;;14.60;73.10;;;;;;5078491;28;20031;-72
2021/06/28 03:51:03;;;;;;;12.43;5.20;;;14.60;73.00;;;;;;5075198;28;20032;-72
2021/06/28 03:53:29;;;;;;;13.93;5.60;;;14.60;73.30;;;;;;5079587;28;20056;-72
2021/06/28 03:55:55;;;;;;;8.88;4.85;;;14.60;73.50;;;;;;5079419;28;20043;-72
2021/06/28 03:58:21;;;;;;;8.90;3.97;;;14.60;73.10;;;;;;5068508;28;20111;-72
2021/06/28 04:00:47;;;;;;;8.00;4.20;;;14.60;73.10;;;;;;5078849;28;20021;-72
2021/06/28 04:03:15;;;;;;;8.95;4.22;;;14.60;73.40;;;;;;5079842;28;20048;-72
2021/06/28 04:05:41;;;;;;;8.80;4.40;;;14.70;73.30;;;;;;5079106;28;20025;-72
2021/06/28 04:08:07;;;;;;;8.32;4.20;;;14.70;73.40;;;;;;5079201;28;20029;-72
2021/06/28 04:10:33;;;;;;;11.70;5.00;;;14.70;73.30;;;;;;5079177;28;20406;-72
2021/06/28 04:12:59;;;;;;;12.38;4.25;;;14.70;73.80;;;;;;5079256;28;20031;-72
2021/06/28 04:15:25;;;;;;;8.50;4.68;;;14.70;73.80;;;;;;5078897;28;20028;-72
2021/06/28 04:17:53;;;;;;;11.32;4.80;;;14.70;73.90;;;;;;5079183;28;20039;-72
2021/06/28 04:20:22;;;;;;;9.13;4.40;;;14.70;73.60;;;;;;5064319;28;20025;-72
2021/06/28 04:22:49;;;;;;;9.88;4.78;;;14.70;73.20;;;;;;5070254;28;20025;-72
2021/06/28 04:25:18;;;;;;;7.15;4.45;;;14.70;73.70;;;;;;5078787;28;20036;-72
2021/06/28 04:27:44;;;;;;;10.18;4.22;;;14.60;74.40;;;;;;5078923;28;20024;-72
2021/06/28 04:30:12;;;;;;;10.18;4.38;;;14.60;74.70;;;;;;5077341;28;20529;-72
2021/06/28 04:32:39;;;;;;;8.50;4.28;;;14.60;74.40;;;;;;5067384;28;20029;-72
2021/06/28 04:35:07;;;;;;;9.25;4.65;;;14.60;73.90;;;;;;5078493;28;20115;-72
2021/06/28 04:37:34;;;;;;;10.50;4.68;;;14.60;74.00;;;;;;5081518;28;20062;-72
2021/06/28 04:40:00;;;;;;;10.07;5.40;;;14.70;74.50;;;;;;5076685;28;20032;-72
2021/06/28 04:42:26;;;;;;;10.85;4.75;;;14.70;74.20;;;;;;5076976;28;20131;-71
2021/06/28 04:44:52;;;;;;;7.95;4.53;;;14.70;73.90;;;;;;5078672;28;20053;-76
2021/06/28 04:47:18;;;;;;;8.68;4.88;;;14.70;74.10;;;;;;5078469;28;20511;-75
2021/06/28 04:49:43;;;;;;;9.90;4.53;;;14.70;74.00;;;;;;5078131;28;20459;-75
2021/06/28 04:52:09;;;;;;;9.88;4.57;;;14.70;74.10;;;;;;5077853;28;20024;-75
2021/06/28 04:54:35;;;;;;;8.48;4.38;;;14.70;74.40;;;;;;5077207;28;20038;-75
2021/06/28 04:57:01;;;;;;;9.38;4.20;;;14.70;73.90;;;;;;5078360;28;20017;-75
2021/06/28 04:59:27;;;;;;;9.05;5.05;;;14.80;74.00;;;;;;5078325;28;20074;-75
2021/06/28 05:01:53;;;;;;;8.65;4.50;;;14.80;74.30;;;;;;5078252;28;20025;-75
2021/06/28 05:04:19;;;;;;;10.05;5.28;;;14.80;74.10;;;;;;5078077;28;20115;-75
2021/06/28 05:06:47;;;;;;;7.72;4.38;;;14.80;73.90;;;;;;5077886;28;20929;-75
2021/06/28 05:09:13;;;;;;;8.85;4.35;;;14.80;73.70;;;;;;5076133;28;20037;-75
2021/06/28 05:11:38;;;;;;;8.85;3.97;;;14.80;73.70;;;;;;5067324;28;20021;-75
2021/06/28 05:14:04;;;;;;;7.50;4.07;;;14.80;74.00;;;;;;5082700;28;20032;-75
2021/06/28 05:16:31;;;;;;;10.48;4.28;;;14.80;74.50;;;;;;5076549;28;20124;-75
2021/06/28 05:18:57;;;;;;;6.75;3.83;;;14.80;74.20;;;;;;5077024;28;20032;-75
2021/06/28 05:21:22;;;;;;;14.02;4.85;;;14.80;74.20;;;;;;5077746;28;20096;-75
2021/06/28 05:23:48;;;;;;;8.13;4.30;;;14.80;74.50;;;;;;5077597;28;20105;-75
2021/06/28 05:26:14;;;;;;;10.85;4.47;;;14.80;74.40;;;;;;5076196;28;20013;-74
2021/06/28 05:28:40;;;;;;;12.13;4.78;;;14.80;74.50;;;;;;5077558;28;20037;-75
2021/06/28 05:31:05;;;;;;;14.82;4.68;;;14.80;74.70;;;;;;5077077;28;20499;-74
2021/06/28 05:33:31;;;;;;;10.15;4.63;;;14.80;74.90;;;;;;5075757;28;20124;-74
2021/06/28 05:35:57;;;;;;;7.63;4.68;;;14.80;74.60;;;;;;5077399;28;20012;-75
2021/06/28 05:38:23;;;;;;;10.68;5.20;;;14.80;76.20;;;;;;5077489;28;20372;-75
2021/06/28 05:40:49;;;;;;;12.02;4.95;;;14.80;75.90;;;;;;5076791;28;20095;-75
2021/06/28 05:43:14;;;;;;;9.50;5.40;;;14.90;75.80;;;;;;5077160;28;20078;-75
2021/06/28 05:45:40;;;;;;;10.40;5.45;;;14.80;76.00;;;;;;5075956;28;20017;-74
2021/06/28 05:48:06;;;;;;;11.35;4.97;;;14.90;75.50;;;;;;5077576;28;20035;-75
2021/06/28 05:50:32;;;;;;;11.43;5.80;;;14.90;75.40;;;;;;5065612;28;20115;-75
2021/06/28 05:52:59;;;;;;;10.55;5.55;;;14.90;75.70;;;;;;5076852;28;20028;-75
2021/06/28 05:55:25;;;;;;;12.32;5.20;;;14.90;75.60;;;;;;5076718;28;20028;-74
2021/06/28 05:57:51;;;;;;;9.45;5.15;;;14.90;76.10;;;;;;5070931;28;20032;-74
2021/06/28 06:00:19;;;;;;;11.43;5.20;;;15.00;75.70;;;;;;5072780;28;20024;-74
2021/06/28 06:02:45;;;;;;;10.40;5.68;;;15.00;76.00;;;;;;5076256;28;20078;-77
2021/06/28 06:05:11;;;;;;;9.13;5.15;;;15.00;76.00;;;;;;5076420;28;20025;-76
2021/06/28 06:07:38;;;;;;;9.82;5.35;;;15.00;76.50;;;;;;5075984;28;20016;-74
2021/06/28 06:10:06;;;;;;;15.30;6.20;;;15.10;76.50;;;;;;5076026;28;20032;-74
2021/06/28 06:12:32;;;;;;;10.32;7.15;;;15.10;76.00;;;;;;5072383;28;20028;-74
2021/06/28 06:14:59;;;;;;;14.60;5.45;;;15.20;76.30;;;;;;5075442;28;20077;-74
2021/06/28 06:17:24;;;;;;;10.32;5.88;;;15.20;77.40;;;;;;5075573;28;20045;-73
2021/06/28 06:19:50;;;;;;;13.55;6.28;;;15.30;77.00;;;;;;5075346;28;20183;-76
2021/06/28 06:22:16;;;;;;;10.63;6.60;;;15.30;77.00;;;;;;5074948;28;20050;-74
2021/06/28 06:24:42;;;;;;;12.57;7.45;;;15.40;78.10;;;;;;5073802;28;20525;-74
2021/06/28 06:27:08;;;;;;;10.20;6.20;;;15.50;77.70;;;;;;5075563;28;20028;-74
2021/06/28 06:29:36;;;;;;;12.90;6.55;;;15.60;77.20;;;;;;5073257;28;20176;-75
2021/06/28 06:32:02;;;;;;;9.15;6.30;;;15.70;77.30;;;;;;5079040;28;20028;-74
2021/06/28 06:34:28;;;;;;;10.40;5.93;;;15.90;77.90;;;;;;5072660;28;21277;-74
2021/06/28 06:36:54;;;;;;;10.90;5.85;;;15.90;77.50;;;;;;5071462;28;20036;-74
2021/06/28 06:39:20;;;;;;;10.48;6.13;;;16.00;77.20;;;;;;5075636;28;20103;-74
2021/06/28 06:41:46;;;;;;;8.60;5.55;;;16.10;77.10;;;;;;5075334;28;20049;-74
2021/06/28 06:44:13;;;;;;;10.38;5.55;;;16.10;77.30;;;;;;5076875;28;20387;-74
2021/06/28 06:46:39;;;;;;;11.07;5.82;;;16.20;77.20;;;;;;5075999;28;20036;-74
2021/06/28 06:49:05;;;;;;;11.52;6.93;;;16.30;77.10;;;;;;5076639;28;20029;-75
2021/06/28 06:51:32;;;;;;;13.10;5.35;;;16.30;77.10;;;;;;5075112;28;20039;-74
2021/06/28 06:53:57;;;;;;;11.52;6.07;;;16.40;77.10;;;;;;5075748;28;20035;-75
2021/06/28 06:56:23;;;;;;;9.02;5.35;;;16.30;76.50;;;;;;5076709;28;20029;-75
2021/06/28 06:58:49;;;;;;;10.32;5.43;;;16.30;77.10;;;;;;5080126;28;20024;-74
2021/06/28 07:01:17;;;;;;;9.75;5.70;;;16.30;76.40;;;;;;5078382;28;20020;-74
2021/06/28 07:03:44;;;;;;;11.70;5.60;;;16.30;76.40;;;;;;5080179;28;20390;-74
2021/06/28 07:06:11;;;;;;;12.93;5.65;;;16.30;76.40;;;;;;5079432;28;20020;-74
2021/06/28 07:08:37;;;;;;;9.70;6.28;;;16.40;76.50;;;;;;5077780;28;20028;-74
2021/06/28 07:11:10;;;;;;;11.10;5.85;;;16.30;76.50;;;;;;5073981;28;20400;-74
2021/06/28 07:13:40;;;;;;;12.93;7.13;;;16.40;76.70;;;;;;5079638;28;20032;-74
2021/06/28 07:16:06;;;;;;;10.55;6.03;;;16.50;76.90;;;;;;5079043;28;20075;-74
2021/06/28 07:18:33;;;;;;;9.68;5.47;;;16.60;77.00;;;;;;5075509;28;20031;-74
2021/06/28 07:20:59;;;;;;;8.98;6.05;;;16.70;77.40;;;;;;5079225;28;20036;-74
2021/06/28 07:23:25;;;;;;;14.35;5.85;;;16.70;77.00;;;;;;5079089;28;20027;-74
2021/06/28 07:25:52;;;;;;;14.13;6.05;;;16.80;77.10;;;;;;5079618;28;20095;-74
2021/06/28 07:28:17;;;;;;;10.60;5.43;;;16.90;77.30;;;;;;5079629;28;20016;-74
2021/06/28 07:30:43;;;;;;;9.55;5.75;;;17.00;77.30;;;;;;5080301;28;20047;-74
2021/06/28 07:33:09;;;;;;;13.57;6.13;;;17.00;77.20;;;;;;5079293;28;20562;-74
2021/06/28 07:35:35;;;;;;;14.27;5.78;;;17.10;77.30;;;;;;5077209;28;20024;-74
2021/06/28 07:38:01;;;;;;;11.07;6.10;;;17.20;77.50;;;;;;5077142;28;20025;-74
2021/06/28 07:40:27;;;;;;;10.73;5.35;;;17.40;77.80;;;;;;5077200;28;20107;-74
2021/06/28 07:42:53;;;;;;;13.13;6.43;;;17.50;77.50;;;;;;5077928;28;20545;-74
2021/06/28 07:45:20;;;;;;;8.93;5.75;;;17.60;77.30;;;;;;5078510;28;20391;-74
2021/06/28 07:47:47;;;;;;;8.80;6.15;;;17.60;77.30;;;;;;5079961;28;20037;-74
2021/06/28 07:50:14;;;;;;;11.88;5.75;;;17.60;77.30;;;;;;5076262;28;20056;-74
2021/06/28 07:52:41;;;;;;;12.93;5.90;;;17.60;77.20;;;;;;5074877;28;20383;-74
2021/06/28 07:55:10;;;;;;;9.15;5.68;;;17.60;76.80;;;;;;5071243;28;20032;-74
2021/06/28 07:57:37;;;;;;;10.23;5.25;;;17.60;76.80;;;;;;5072686;28;20124;-74
2021/06/28 08:00:12;;;;;;;10.07;6.05;;;17.60;76.60;;;;;;5078846;28;20020;-74
2021/06/28 08:02:38;;;;;;;12.52;5.55;;;17.60;76.70;;;;;;5077203;28;20032;-74
2021/06/28 08:05:06;;;;;;;9.88;5.80;;;17.70;76.60;;;;;;5077559;28;20025;-73
2021/06/28 08:07:32;;;;;;;8.13;6.03;;;17.70;76.60;;;;;;5077106;28;20050;-74
2021/06/28 08:09:58;;;;;;;11.18;5.07;;;17.60;76.20;;;;;;5077923;28;20090;-74
2021/06/28 08:12:24;;;;;;;10.55;6.00;;;17.60;76.40;;;;;;5077686;28;20021;-74
2021/06/28 08:14:50;;;;;;;9.07;5.55;;;17.70;76.50;;;;;;5077678;28;20020;-74
2021/06/28 08:17:16;;;;;;;8.57;5.13;;;17.70;76.40;;;;;;5077391;28;20080;-74
2021/06/28 08:19:44;;;;;;;9.48;5.43;;;17.60;76.20;;;;;;5076379;28;20020;-74
2021/06/28 08:22:10;;;;;;;10.57;6.00;;;17.60;76.40;;;;;;5077727;28;20016;-74
2021/06/28 08:24:36;;;;;;;12.73;5.90;;;17.70;76.40;;;;;;5079023;28;20033;-73
2021/06/28 08:27:03;;;;;;;10.70;5.72;;;17.70;76.40;;;;;;5077732;28;20119;-78
2021/06/28 08:29:28;;;;;;;12.00;5.63;;;17.70;76.00;;;;;;5077270;28;20027;-71
2021/06/28 08:31:54;;;;;;;10.52;6.30;;;17.70;75.90;;;;;;5075857;28;20013;-72
2021/06/28 08:34:20;;;;;;;10.32;6.22;;;17.70;75.70;;;;;;5076821;28;20070;-72
2021/06/28 08:36:47;;;;;;;10.25;5.97;;;17.70;75.90;;;;;;5073998;28;20052;-72
2021/06/28 08:39:15;;;;;;;12.88;5.85;;;17.70;76.10;;;;;;5068859;28;20074;-71
2021/06/28 08:41:45;;;;;;;10.32;6.30;;;17.70;75.90;;;;;;5078902;28;20031;-73
2021/06/28 08:44:12;;;;;;;12.13;6.03;;;17.70;75.80;;;;;;5078116;28;20040;-72
2021/06/28 08:46:38;;;;;;;8.35;5.85;;;17.80;76.00;;;;;;5078798;28;20026;-71
2021/06/28 08:49:05;;;;;;;11.40;5.90;;;17.80;76.10;;;;;;5076797;28;20028;-70
2021/06/28 08:51:31;;;;;;;8.98;5.70;;;17.90;76.30;;;;;;5077253;28;20447;-70
2021/06/28 08:53:57;;;;;;;12.95;6.38;;;17.90;76.20;;;;;;5073365;28;20040;-73
2021/06/28 08:56:23;;;;;;;10.15;5.90;;;18.00;76.30;;;;;;5076832;28;20031;-76
2021/06/28 08:58:50;;;;;;;12.85;6.38;;;18.00;76.20;;;;;;5075302;28;20036;-77
2021/06/28 09:01:16;;;;;;;11.55;7.32;;;18.00;76.10;;;;;;5076922;28;20017;-76
2021/06/28 09:03:41;;;;;;;21.17;12.50;;;18.00;75.90;;;;;;5079401;28;20016;-77
2021/06/28 09:06:10;;;;;;;15.82;9.80;;;18.00;75.70;;;;;;5079063;28;20024;-78
2021/06/28 09:08:37;;;;;;;12.25;6.63;;;17.90;75.50;;;;;;5076733;28;20032;-74
2021/06/28 09:11:04;;;;;;;7.80;5.65;;;17.90;75.50;;;;;;5075213;28;20033;-74
2021/06/28 09:13:46;;;;;;;10.57;5.75;;;17.90;75.70;;;;;;5076938;28;20081;-73
2021/06/28 09:16:32;;;;;;;9.32;6.57;;;17.80;75.30;;;;;;5076305;28;20032;-74
2021/06/28 09:19:02;;;;;;;13.75;6.28;;;17.70;75.00;;;;;;5072954;28;20063;-73
2021/06/28 09:21:40;;;;;;;10.07;6.43;;;17.70;75.00;;;;;;5076749;28;20049;-73
2021/06/28 09:24:29;;;;;;;12.57;6.38;;;17.60;75.00;;;;;;5078029;28;20017;-73
2021/06/28 09:27:16;;;;;;;9.68;6.45;;;17.60;75.10;;;;;;5075420;28;20017;-73
2021/06/28 09:29:49;;;;;;;8.38;4.82;;;17.60;75.20;;;;;;5072843;28;20094;-73
2021/06/28 09:32:17;;;;;;;10.80;5.53;;;17.50;75.20;;;;;;5076698;28;20035;-72
2021/06/28 09:34:46;;;;;;;11.52;5.88;;;17.40;75.20;;;;;;5076915;28;20449;-73
2021/06/28 09:37:14;;;;;;;12.90;6.40;;;17.40;75.20;;;;;;5073091;28;20392;-73
2021/06/28 09:39:51;;;;;;;10.50;5.90;;;17.40;75.40;;;;;;5075617;28;20533;-73
2021/06/28 09:42:21;;;;;;;8.60;5.85;;;17.40;75.60;;;;;;5063855;28;20021;-73
2021/06/28 09:45:13;;;;;;;8.45;5.85;;;17.40;75.70;;;;;;5075706;28;20056;-73
2021/06/28 09:47:38;;;;;;;8.65;5.97;;;17.50;76.10;;;;;;5073499;28;20020;-76
2021/06/28 09:50:04;;;;;;;12.48;6.88;;;17.60;76.40;;;;;;5076450;28;20024;-74
2021/06/28 09:52:58;;;;;;;14.18;7.15;;;17.60;76.60;;;;;;5076594;28;20025;-74
2021/06/28 09:55:33;;;;;;;11.43;7.35;;;17.70;76.80;;;;;;5064673;28;20036;-74
2021/06/28 09:58:25;;;;;;;11.02;7.13;;;17.70;76.90;;;;;;5077413;28;20039;-74
2021/06/28 10:00:52;;;;;;;10.65;7.55;;;17.80;77.20;;;;;;5077385;28;20024;-74
2021/06/28 10:03:38;;;;;;;17.40;8.05;;;17.80;77.10;;;;;;5077661;28;20024;-74
2021/06/28 10:08:43;;;;;;;17.55;6.82;;;18.10;77.90;;;;;;5077529;28;20051;-75
2021/06/28 10:11:17;;;;;;;13.02;6.50;;;18.30;78.00;;;;;;5077330;28;20063;-75
2021/06/28 10:13:47;;;;;;;9.43;5.70;;;18.40;78.10;;;;;;5077569;28;20021;-75
2021/06/28 10:16:13;;;;;;;9.00;5.70;;;18.60;78.30;;;;;;5077451;28;20048;-74
2021/06/28 10:18:39;;;;;;;9.88;5.57;;;18.80;77.20;;;;;;5076557;28;20017;-74
2021/06/28 10:21:08;;;;;;;7.90;5.53;;;18.90;77.50;;;;;;5076098;28;20031;-75
2021/06/28 10:23:36;;;;;;;12.43;5.72;;;19.00;77.60;;;;;;5077112;28;20021;-74
2021/06/28 10:26:02;;;;;;;10.45;5.30;;;19.10;77.10;;;;;;5077682;28;20495;-75
2021/06/28 10:28:30;;;;;;;9.50;5.60;;;19.20;77.40;;;;;;5077184;28;20054;-75
2021/06/28 10:30:56;;;;;;;9.02;4.90;;;19.30;77.40;;;;;;5076912;28;20051;-74
2021/06/28 10:33:23;;;;;;;9.73;5.35;;;19.30;77.70;;;;;;5077162;28;20024;-74
2021/06/28 10:35:49;;;;;;;7.97;4.80;;;19.40;76.30;;;;;;5077516;28;20067;-75
2021/06/28 10:38:15;;;;;;;11.25;5.85;;;19.50;76.50;;;;;;5075593;28;20068;-76
2021/06/28 10:40:58;;;;;;;10.18;5.53;;;19.40;76.40;;;;;;5077183;28;20407;-75
2021/06/28 10:43:25;;;;;;;;;;;19.40;75.90;;;;;;5077530;28;20062;-75
2021/06/28 10:45:52;;;;;;;8.80;5.13;;;19.30;74.80;;;;;;5067753;28;19912;-75
2021/06/28 10:48:23;;;;;;;8.57;5.18;;;19.20;75.50;;;;;;5075941;28;20502;-75
2021/06/28 10:50:54;;;;;;;7.75;5.25;;;19.10;75.60;;;;;;5076904;28;20111;-75
2021/06/28 10:53:32;;;;;;;10.93;5.13;;;19.10;75.10;;;;;;5077096;28;20017;-73
2021/06/28 10:55:59;;;;;;;10.20;5.63;;;19.00;74.90;;;;;;5076798;28;20051;-74
2021/06/28 10:58:32;;;;;;;9.50;5.22;;;18.90;75.20;;;;;;5077170;28;20025;-74
2021/06/28 11:01:04;;;;;;;9.63;6.50;;;18.90;75.30;;;;;;5063878;28;20020;-74
2021/06/28 11:03:34;;;;;;;11.80;6.03;;;19.00;75.70;;;;;;5077110;28;20078;-75
2021/06/28 11:06:17;;;;;;;10.75;5.30;;;19.00;76.00;;;;;;5077249;28;20486;-75
2021/06/28 11:08:58;;;;;;;11.68;5.40;;;19.00;75.70;;;;;;5076602;28;20020;-74
2021/06/28 11:11:55;;;;;;;10.30;5.90;;;19.10;74.60;;;;;;5075608;28;20424;-75
2021/06/28 11:14:21;;;;;;;8.93;5.03;;;19.00;75.10;;;;;;5066975;28;20494;-74
2021/06/28 11:17:16;;;;;;;8.13;5.85;;;19.00;74.80;;;;;;5076686;28;20048;-75
2021/06/28 11:19:46;;;;;;;8.60;5.25;;;19.00;74.60;;;;;;5071206;28;20027;-74
2021/06/28 11:22:27;;;;;;;7.43;5.35;;;19.00;74.20;;;;;;5075413;28;20490;-75
2021/06/28 11:25:08;;;;;;;8.85;5.13;;;19.10;75.10;;;;;;5076559;28;20475;-75
2021/06/28 11:27:42;;;;;;;9.25;5.90;;;19.10;75.50;;;;;;5076835;28;20021;-76
2021/06/28 11:30:14;;;;;;;12.15;5.57;;;19.20;75.20;;;;;;5076808;28;20537;-75
2021/06/28 11:33:10;;;;;;;11.57;5.55;;;19.30;74.80;;;;;;5076793;28;20107;-75
2021/06/28 11:35:48;;;;;;;8.90;5.10;;;19.20;74.90;;;;;;5075396;28;20512;-75
2021/06/28 11:38:17;;;;;;;13.32;5.18;;;19.30;75.30;;;;;;5064530;28;20024;-75
2021/06/28 11:40:46;;;;;;;8.38;4.88;;;19.20;75.50;;;;;;5076452;28;20052;-75
2021/06/28 11:43:12;;;;;;;7.72;4.80;;;19.20;75.00;;;;;;5077515;28;20017;-74
2021/06/28 11:45:50;;;;;;;10.15;5.53;;;19.20;75.00;;;;;;5070800;28;20063;-75
2021/06/28 11:48:35;;;;;;;11.57;5.63;;;19.20;75.10;;;;;;5080444;28;20474;-73
2021/06/28 11:51:21;;;;;;;7.63;4.97;;;19.20;75.30;;;;;;5071201;28;20036;-75
2021/06/28 11:54:04;;;;;;;11.88;4.88;;;19.20;75.60;;;;;;5072115;28;20048;-75
2021/06/28 11:56:33;;;;;;;10.20;5.50;;;19.20;75.70;;;;;;5079841;28;20060;-75
2021/06/28 11:59:07;;;;;;;7.75;4.60;;;19.10;75.50;;;;;;5079191;28;20036;-76
2021/06/28 12:01:34;;;;;;;11.55;5.50;;;19.10;75.20;;;;;;5078464;28;20031;-75
2021/06/28 12:04:04;;;;;;;7.93;5.07;;;19.00;74.60;;;;;;5079805;28;20099;-76
2021/06/28 12:06:33;;;;;;;12.48;5.30;;;18.90;74.60;;;;;;5079231;28;20032;-75
2021/06/28 12:09:09;;;;;;;10.23;4.30;;;18.80;74.80;;;;;;5069535;28;20486;-76
2021/06/28 12:12:02;;;;;;;11.88;5.35;;;18.60;74.40;;;;;;5079445;28;20029;-76
2021/06/28 12:14:44;;;;;;;11.43;5.30;;;18.50;74.90;;;;;;5079506;28;20024;-76
2021/06/28 12:17:21;;;;;;;6.95;3.88;;;18.40;75.00;;;;;;5079182;28;20147;-76
2021/06/28 12:19:53;;;;;;;9.05;4.30;;;18.30;75.00;;;;;;5078454;28;20032;-76
2021/06/28 12:22:39;;;;;;;10.43;4.35;;;18.20;75.20;;;;;;5079030;28;20109;-76
2021/06/28 12:25:08;;;;;;;7.43;4.75;;;18.20;75.40;;;;;;5075987;28;20402;-76
2021/06/28 12:27:35;;;;;;;8.77;4.43;;;18.20;75.70;;;;;;5079376;28;20024;-75
2021/06/28 12:30:22;;;;;;;8.23;4.57;;;18.30;76.20;;;;;;5079094;28;20031;-75
2021/06/28 12:32:50;;;;;;;11.10;5.30;;;18.30;76.30;;;;;;5079005;28;20016;-75
2021/06/28 12:35:23;;;;;;;9.93;4.82;;;18.50;76.60;;;;;;5079415;28;20030;-75
2021/06/28 12:37:49;;;;;;;;;;;18.60;77.10;;;;;;5078971;28;20038;-75
2021/06/28 12:40:37;;;;;;;13.90;5.85;;;18.80;77.00;;;;;;5078963;28;20336;-75
2021/06/28 12:43:05;;;;;;;8.07;5.20;;;19.00;77.00;;;;;;5077757;28;20483;-75
2021/06/28 12:45:43;;;;;;;9.15;4.88;;;19.10;77.40;;;;;;5069913;28;20056;-75
2021/06/28 12:48:20;;;;;;;7.70;5.30;;;19.20;76.90;;;;;;5066706;28;20024;-75
2021/06/28 12:50:59;;;;;;;13.45;5.65;;;19.30;76.70;;;;;;5078514;28;20028;-75
2021/06/28 12:53:27;;;;;;;10.35;5.80;;;19.30;76.80;;;;;;5078572;28;20104;-75